createdAt,value
2018-05-16T00:00:47.617Z,36.50
2018-05-16T00:03:13.653Z,34.47
2018-05-16T00:05:39.705Z,42.40
2018-05-16T00:08:05.722Z,35.87
2018-05-16T00:10:31.763Z,40.77
2018-05-16T00:12:57.836Z,43.97
2018-05-16T00:15:23.838Z,40.43
2018-05-16T00:17:49.921Z,37.90
2018-05-16T00:20:15.988Z,44.57
2018-05-16T00:22:41.996Z,42.37
2018-05-16T00:25:08.018Z,34.87
2018-05-16T00:27:34.025Z,45.07
2018-05-16T00:30:00.135Z,44.20
2018-05-16T00:32:27.136Z,36.00
2018-05-16T00:34:53.133Z,44.57
2018-05-16T00:37:19.164Z,43.50
2018-05-16T00:39:45.213Z,41.93
2018-05-16T00:42:11.233Z,41.20
2018-05-16T00:44:37.243Z,40.43
2018-05-16T00:47:03.345Z,42.00
2018-05-16T00:49:29.394Z,41.43
2018-05-16T00:51:55.406Z,32.33
2018-05-16T00:54:21.438Z,42.07
2018-05-16T00:56:47.461Z,42.10
2018-05-16T00:59:13.569Z,40.40
2018-05-16T01:01:39.647Z,32.50
2018-05-16T01:04:05.654Z,38.90
2018-05-16T01:06:31.699Z,39.47
2018-05-16T01:08:57.750Z,38.77
2018-05-16T01:11:23.784Z,38.60
2018-05-16T01:13:49.804Z,39.27
2018-05-16T01:16:15.881Z,38.77
2018-05-16T01:18:41.934Z,39.43
2018-05-16T01:21:07.959Z,39.73
2018-05-16T01:23:34.003Z,40.23
2018-05-16T01:26:00.028Z,38.13
2018-05-16T01:28:26.076Z,39.67
2018-05-16T01:30:52.091Z,39.33
2018-05-16T01:33:18.095Z,37.90
2018-05-16T01:35:44.106Z,38.67
2018-05-16T01:38:10.155Z,39.03
2018-05-16T01:40:36.166Z,38.63
2018-05-16T01:43:02.188Z,37.03
2018-05-16T01:45:28.289Z,38.50
2018-05-16T01:47:54.292Z,37.80
2018-05-16T01:50:20.326Z,37.73
2018-05-16T01:52:46.416Z,37.17
2018-05-16T01:55:12.942Z,37.60
2018-05-16T01:57:39.950Z,35.30
2018-05-16T02:00:05.934Z,35.97
2018-05-16T02:02:32.198Z,37.30
2018-05-16T02:04:58.917Z,36.33
2018-05-16T02:07:25.046Z,36.90
2018-05-16T02:09:51.065Z,35.40
2018-05-16T02:12:17.065Z,36.80
2018-05-16T02:14:43.129Z,36.77
2018-05-16T02:17:09.158Z,36.40
2018-05-16T02:19:35.179Z,37.43
2018-05-16T02:22:01.221Z,35.53
2018-05-16T02:24:27.281Z,34.87
2018-05-16T02:26:53.305Z,33.20
2018-05-16T02:29:19.314Z,34.10
2018-05-16T02:31:45.442Z,32.67
2018-05-16T02:34:11.487Z,31.67
2018-05-16T02:36:37.509Z,30.73
2018-05-16T02:39:04.514Z,29.60
2018-05-16T02:41:30.567Z,30.40
2018-05-16T02:43:56.800Z,29.50
2018-05-16T02:46:22.822Z,30.43
2018-05-16T02:48:49.255Z,31.37
2018-05-16T02:51:15.284Z,32.57
2018-05-16T02:53:41.290Z,32.73
2018-05-16T02:56:07.394Z,31.67
2018-05-16T02:58:33.450Z,34.17
2018-05-16T03:00:59.490Z,31.67
2018-05-16T03:03:25.566Z,32.77
2018-05-16T03:05:51.586Z,31.17
2018-05-16T03:08:17.591Z,31.73
2018-05-16T03:10:43.614Z,33.93
2018-05-16T03:13:09.957Z,33.60
2018-05-16T03:15:35.985Z,33.17
2018-05-16T03:18:02.070Z,33.97
2018-05-16T03:20:28.109Z,32.80
2018-05-16T03:22:54.202Z,34.13
2018-05-16T03:25:20.773Z,35.10
2018-05-16T03:27:46.893Z,35.40
2018-05-16T03:30:13.010Z,35.27
2018-05-16T03:32:39.367Z,33.80
2018-05-16T03:35:05.395Z,33.97
2018-05-16T03:37:31.437Z,32.00
2018-05-16T03:39:57.461Z,32.33
2018-05-16T03:42:23.501Z,31.80
2018-05-16T03:44:49.519Z,31.20
2018-05-16T03:47:15.541Z,31.93
2018-05-16T03:49:41.979Z,30.23
2018-05-16T03:52:07.985Z,31.23
2018-05-16T03:54:33.990Z,30.27
2018-05-16T03:57:00.010Z,30.43
2018-05-16T03:59:38.131Z,30.17
2018-05-16T04:02:16.494Z,27.20
2018-05-16T04:04:42.446Z,28.07
2018-05-16T04:07:08.442Z,27.97
2018-05-16T04:09:34.530Z,27.83
2018-05-16T04:12:00.627Z,28.70
2018-05-16T04:14:26.904Z,26.50
2018-05-16T04:16:52.907Z,26.53
2018-05-16T04:19:18.965Z,27.20
2018-05-16T04:21:45.058Z,26.87
2018-05-16T04:24:11.094Z,26.37
2018-05-16T04:26:37.140Z,25.33
2018-05-16T04:29:03.144Z,24.33
2018-05-16T04:31:29.292Z,18.93
2018-05-16T04:33:55.342Z,22.70
2018-05-16T04:36:21.368Z,21.47
2018-05-16T04:38:47.413Z,22.57
2018-05-16T04:41:13.429Z,21.53
2018-05-16T04:43:39.497Z,21.10
2018-05-16T04:46:05.524Z,16.93
2018-05-16T04:48:31.605Z,19.40
2018-05-16T04:50:57.633Z,19.67
2018-05-16T04:53:23.651Z,19.40
2018-05-16T04:55:49.682Z,14.53
2018-05-16T04:58:15.747Z,15.37
2018-05-16T05:00:42.906Z,17.27
2018-05-16T05:03:09.043Z,14.50
2018-05-16T05:05:35.122Z,15.47
2018-05-16T05:08:01.162Z,15.60
2018-05-16T05:10:27.186Z,15.40
2018-05-16T05:12:53.334Z,14.13
2018-05-16T05:15:19.672Z,14.27
2018-05-16T05:17:45.723Z,14.23
2018-05-16T05:20:11.729Z,14.33
2018-05-16T05:22:37.800Z,11.93
2018-05-16T05:25:03.844Z,14.03
2018-05-16T05:27:29.854Z,14.17
2018-05-16T05:29:55.867Z,11.70
2018-05-16T05:32:22.146Z,14.73
2018-05-16T05:34:48.519Z,12.57
2018-05-16T05:37:14.820Z,12.00
2018-05-16T05:39:40.841Z,12.77
2018-05-16T05:42:06.929Z,12.67
2018-05-16T05:44:33.077Z,14.40
2018-05-16T05:46:59.101Z,13.50
2018-05-16T05:49:25.126Z,12.60
2018-05-16T05:51:51.186Z,14.23
2018-05-16T05:54:17.368Z,11.60
2018-05-16T05:56:43.371Z,13.97
2018-05-16T05:59:09.395Z,14.77
2018-05-16T06:01:35.503Z,15.70
2018-05-16T06:04:01.525Z,12.80
2018-05-16T06:06:27.550Z,12.00
2018-05-16T06:08:53.622Z,14.40
2018-05-16T06:11:19.638Z,14.80
2018-05-16T06:13:45.665Z,13.67
2018-05-16T06:16:11.673Z,14.73
2018-05-16T06:18:37.679Z,14.30
2018-05-16T06:21:03.690Z,13.33
2018-05-16T06:23:29.723Z,12.83
2018-05-16T06:25:55.736Z,11.97
2018-05-16T06:28:21.753Z,11.03
2018-05-16T06:30:47.827Z,11.13
2018-05-16T06:33:13.891Z,11.20
2018-05-16T06:35:39.999Z,10.10
2018-05-16T06:38:06.091Z,10.30
2018-05-16T06:40:32.088Z,10.77
2018-05-16T06:42:58.199Z,9.97
2018-05-16T06:45:24.330Z,9.87
2018-05-16T06:47:50.394Z,9.53
2018-05-16T06:50:16.438Z,9.33
2018-05-16T06:52:42.915Z,9.87
2018-05-16T06:55:09.564Z,9.40
2018-05-16T06:57:35.998Z,10.17
2018-05-16T07:00:02.030Z,8.67
2018-05-16T07:02:28.079Z,9.83
2018-05-16T07:04:54.190Z,9.10
2018-05-16T07:07:20.723Z,9.77
2018-05-16T07:09:46.849Z,9.07
2018-05-16T07:12:13.487Z,9.00
2018-05-16T07:14:39.573Z,9.30
2018-05-16T07:17:05.701Z,9.63
2018-05-16T07:19:31.850Z,9.80
2018-05-16T07:21:57.914Z,9.87
2018-05-16T07:24:24.167Z,9.20
2018-05-16T07:26:50.241Z,9.33
2018-05-16T07:29:16.289Z,9.60
2018-05-16T07:31:42.425Z,9.17
2018-05-16T07:34:08.524Z,10.20
2018-05-16T07:36:34.673Z,9.07
2018-05-16T07:39:00.728Z,10.10
2018-05-16T07:41:26.820Z,10.03
2018-05-16T07:43:53.020Z,8.57
2018-05-16T07:46:19.177Z,9.13
2018-05-16T07:48:45.274Z,9.07
2018-05-16T07:51:11.410Z,9.60
2018-05-16T07:53:37.415Z,8.83
2018-05-16T07:56:03.588Z,9.83
2018-05-16T07:58:29.615Z,9.57
2018-05-16T08:00:55.677Z,9.50
2018-05-16T08:03:21.760Z,9.90
2018-05-16T08:05:47.770Z,10.37
2018-05-16T08:08:13.822Z,10.67
2018-05-16T08:10:39.921Z,10.03
2018-05-16T08:13:05.963Z,9.80
2018-05-16T08:15:31.982Z,10.87
2018-05-16T08:17:57.995Z,10.87
2018-05-16T08:20:24.127Z,9.73
2018-05-16T08:22:50.222Z,8.97
2018-05-16T08:25:16.296Z,8.97
2018-05-16T08:27:42.378Z,8.63
2018-05-16T08:30:08.665Z,8.97
2018-05-16T08:32:34.738Z,10.13
2018-05-16T08:35:00.786Z,8.97
2018-05-16T08:37:26.834Z,10.43
2018-05-16T08:39:53.080Z,9.50
2018-05-16T08:42:19.220Z,9.73
2018-05-16T08:44:45.869Z,9.27
2018-05-16T08:47:11.922Z,9.50
2018-05-16T08:49:37.983Z,9.70
2018-05-16T08:52:04.054Z,9.20
2018-05-16T08:54:30.171Z,10.40
2018-05-16T08:56:56.207Z,9.43
2018-05-16T08:59:22.257Z,9.00
2018-05-16T09:01:48.337Z,9.20
2018-05-16T09:04:14.394Z,9.40
2018-05-16T09:06:40.478Z,10.33
2018-05-16T09:09:06.527Z,9.97
2018-05-16T09:11:32.642Z,10.37
2018-05-16T09:13:58.781Z,9.33
2018-05-16T09:16:24.834Z,10.20
2018-05-16T09:18:50.886Z,10.03
2018-05-16T09:21:16.982Z,9.50
2018-05-16T09:23:43.041Z,8.97
2018-05-16T09:26:09.365Z,8.73
2018-05-16T09:28:36.977Z,10.00
2018-05-16T09:31:03.100Z,10.90
2018-05-16T09:33:30.086Z,9.87
2018-05-16T09:35:56.099Z,10.20
2018-05-16T09:38:22.120Z,10.17
2018-05-16T09:40:48.185Z,9.73
2018-05-16T09:43:14.219Z,10.80
2018-05-16T09:45:40.259Z,10.43
2018-05-16T09:48:06.273Z,10.20
2018-05-16T09:50:32.315Z,9.60
2018-05-16T09:52:58.542Z,10.27
2018-05-16T09:55:24.645Z,9.40
2018-05-16T09:57:50.724Z,9.93
2018-05-16T10:00:16.818Z,10.60
2018-05-16T10:02:42.956Z,9.80
2018-05-16T10:05:08.983Z,9.07
2018-05-16T10:07:35.074Z,9.27
2018-05-16T10:10:01.110Z,9.83
2018-05-16T10:12:27.264Z,9.43
2018-05-16T10:14:53.776Z,9.20
2018-05-16T10:17:19.865Z,9.00
2018-05-16T10:19:45.994Z,9.90
2018-05-16T10:22:12.037Z,9.73
2018-05-16T10:24:38.075Z,9.10
2018-05-16T10:27:04.209Z,9.70
2018-05-16T10:29:30.291Z,10.47
2018-05-16T10:31:56.385Z,9.77
2018-05-16T10:34:22.592Z,10.57
2018-05-16T10:36:48.541Z,9.30
2018-05-16T10:39:14.614Z,9.87
2018-05-16T10:41:40.754Z,10.43
2018-05-16T10:44:06.853Z,9.23
2018-05-16T10:46:33.009Z,9.47
2018-05-16T10:48:59.065Z,8.63
2018-05-16T10:51:25.199Z,8.80
2018-05-16T10:53:51.378Z,8.87
2018-05-16T10:56:18.151Z,8.47
2018-05-16T10:58:44.216Z,8.37
2018-05-16T11:01:10.270Z,8.70
2018-05-16T11:03:36.329Z,8.70
2018-05-16T11:06:02.472Z,7.87
2018-05-16T11:08:28.674Z,8.17
2018-05-16T11:10:54.720Z,7.97
2018-05-16T11:13:20.839Z,8.27
2018-05-16T11:15:46.974Z,8.20
2018-05-16T11:18:13.148Z,8.17
2018-05-16T11:20:39.171Z,7.83
2018-05-16T11:23:05.214Z,7.57
2018-05-16T11:25:31.297Z,7.70
2018-05-16T11:27:58.254Z,8.17
2018-05-16T11:30:24.371Z,7.93
2018-05-16T11:32:50.431Z,8.33
2018-05-16T11:35:16.567Z,8.13
2018-05-16T11:37:42.630Z,8.37
2018-05-16T11:40:08.749Z,8.73
2018-05-16T11:42:34.810Z,8.50
2018-05-16T11:45:00.969Z,8.50
2018-05-16T11:47:27.038Z,8.30
2018-05-16T11:49:53.177Z,8.13
2018-05-16T11:52:19.349Z,8.30
2018-05-16T11:54:45.387Z,8.97
2018-05-16T11:57:11.431Z,8.20
2018-05-16T11:59:37.459Z,8.90
2018-05-16T12:02:03.939Z,8.70
2018-05-16T12:04:30.034Z,7.47
2018-05-16T12:06:56.093Z,8.20
2018-05-16T12:09:22.178Z,9.10
2018-05-16T12:11:48.217Z,8.60
2018-05-16T12:14:14.250Z,8.33
2018-05-16T12:16:40.284Z,8.90
2018-05-16T12:19:06.359Z,8.23
2018-05-16T12:21:32.430Z,7.80
2018-05-16T12:23:58.484Z,8.30
2018-05-16T12:26:24.536Z,8.37
2018-05-16T12:28:50.763Z,8.30
2018-05-16T12:31:16.922Z,7.90
2018-05-16T12:33:43.040Z,7.17
2018-05-16T12:36:09.203Z,7.27
2018-05-16T12:38:35.238Z,7.23
2018-05-16T12:41:01.649Z,7.00
2018-05-16T12:43:29.637Z,7.20
2018-05-16T12:45:55.687Z,7.00
2018-05-16T12:48:21.727Z,7.23
2018-05-16T12:50:47.754Z,6.53
2018-05-16T12:53:13.832Z,6.40
2018-05-16T12:55:39.978Z,6.97
2018-05-16T12:58:05.998Z,6.50
2018-05-16T13:00:32.022Z,6.37
2018-05-16T13:02:58.045Z,6.47
2018-05-16T13:05:24.208Z,6.37
2018-05-16T13:07:50.245Z,6.23
2018-05-16T13:10:16.330Z,5.53
2018-05-16T13:12:42.342Z,6.63
2018-05-16T13:15:08.411Z,6.00
2018-05-16T13:17:34.494Z,6.47
2018-05-16T13:20:00.519Z,6.83
2018-05-16T13:22:26.580Z,6.03
2018-05-16T13:24:52.638Z,5.70
2018-05-16T13:27:18.723Z,6.93
2018-05-16T13:29:45.019Z,6.13
2018-05-16T13:32:11.051Z,6.30
2018-05-16T13:34:37.087Z,6.20
2018-05-16T13:37:03.182Z,6.80
2018-05-16T13:39:29.267Z,6.90
2018-05-16T13:41:55.303Z,6.23
2018-05-16T13:44:21.332Z,6.20
2018-05-16T13:46:47.544Z,6.53
2018-05-16T13:49:13.521Z,6.53
2018-05-16T13:51:39.615Z,7.07
2018-05-16T13:54:05.678Z,7.17
2018-05-16T13:56:31.739Z,7.43
2018-05-16T13:58:57.803Z,7.80
2018-05-16T14:01:23.890Z,7.67
2018-05-16T14:03:49.905Z,7.77
2018-05-16T14:06:15.947Z,7.20
2018-05-16T14:08:41.981Z,7.57
2018-05-16T14:11:08.056Z,7.53
2018-05-16T14:13:34.118Z,9.03
2018-05-16T14:16:00.154Z,8.80
2018-05-16T14:18:26.270Z,8.90
2018-05-16T14:20:52.340Z,8.77
2018-05-16T14:23:18.453Z,8.43
2018-05-16T14:25:44.694Z,8.10
2018-05-16T14:28:11.465Z,8.57
2018-05-16T14:30:37.526Z,8.20
2018-05-16T14:33:03.592Z,8.50
2018-05-16T14:35:29.617Z,7.60
2018-05-16T14:37:55.723Z,7.43
2018-05-16T14:40:21.738Z,8.33
2018-05-16T14:42:47.905Z,7.57
2018-05-16T14:45:13.917Z,8.10
2018-05-16T14:47:39.946Z,8.10
2018-05-16T14:50:05.962Z,8.57
2018-05-16T14:52:32.018Z,8.10
2018-05-16T14:54:58.114Z,7.63
2018-05-16T14:57:24.158Z,7.60
2018-05-16T14:59:50.192Z,8.13
2018-05-16T15:02:16.239Z,7.30
2018-05-16T15:04:42.294Z,8.00
2018-05-16T15:07:08.423Z,7.00
2018-05-16T15:09:34.513Z,6.87
2018-05-16T15:12:00.629Z,6.87
2018-05-16T15:14:26.647Z,6.47
2018-05-16T15:16:52.858Z,6.87
2018-05-16T15:19:19.090Z,7.07
2018-05-16T15:21:45.183Z,7.07
2018-05-16T15:24:11.247Z,7.17
2018-05-16T15:26:37.284Z,8.10
2018-05-16T15:29:03.309Z,7.67
2018-05-16T15:31:30.032Z,7.27
2018-05-16T15:33:56.124Z,7.80
2018-05-16T15:36:22.142Z,7.43
2018-05-16T15:38:48.184Z,8.23
2018-05-16T15:41:14.289Z,7.23
2018-05-16T15:43:40.530Z,8.93
2018-05-16T15:46:06.977Z,8.93
2018-05-16T15:48:33.587Z,7.53
2018-05-16T15:50:59.694Z,8.07
2018-05-16T15:53:25.783Z,8.33
2018-05-16T15:55:51.863Z,7.30
2018-05-16T15:58:17.926Z,8.50
2018-05-16T16:00:43.967Z,9.20
2018-05-16T16:03:10.011Z,7.50
2018-05-16T16:05:36.113Z,9.10
2018-05-16T16:08:02.227Z,8.47
2018-05-16T16:10:28.177Z,8.73
2018-05-16T16:12:54.197Z,8.57
2018-05-16T16:15:20.233Z,8.30
2018-05-16T16:17:46.301Z,8.73
2018-05-16T16:20:12.303Z,8.27
2018-05-16T16:22:38.317Z,8.03
2018-05-16T16:25:04.346Z,8.30
2018-05-16T16:27:30.402Z,8.17
2018-05-16T16:29:56.482Z,7.93
2018-05-16T16:32:22.574Z,7.90
2018-05-16T16:34:48.641Z,7.73
2018-05-16T16:37:14.692Z,8.13
2018-05-16T16:39:40.752Z,8.00
2018-05-16T16:42:07.415Z,8.20
2018-05-16T16:44:33.487Z,8.40
2018-05-16T16:46:59.559Z,7.63
2018-05-16T16:49:25.631Z,7.67
2018-05-16T16:51:51.687Z,7.13
2018-05-16T16:54:17.718Z,7.63
2018-05-16T16:56:43.838Z,8.10
2018-05-16T16:59:09.932Z,8.00
2018-05-16T17:01:36.075Z,7.77
2018-05-16T17:04:02.108Z,8.33
2018-05-16T17:06:28.161Z,7.93
2018-05-16T17:08:54.324Z,7.77
2018-05-16T17:11:20.400Z,9.50
2018-05-16T17:13:46.574Z,9.70
2018-05-16T17:16:12.671Z,8.70
2018-05-16T17:18:38.720Z,9.50
2018-05-16T17:21:04.818Z,9.67
2018-05-16T17:23:30.987Z,9.90
2018-05-16T17:25:57.208Z,9.40
2018-05-16T17:28:23.364Z,8.43
2018-05-16T17:30:49.481Z,8.20
2018-05-16T17:33:15.668Z,8.33
2018-05-16T17:35:41.852Z,9.57
2018-05-16T17:38:07.938Z,10.03
2018-05-16T17:40:34.097Z,9.27
2018-05-16T17:43:00.156Z,10.20
2018-05-16T17:45:26.262Z,8.97
2018-05-16T17:47:52.353Z,8.70
2018-05-16T17:50:18.497Z,8.67
2018-05-16T17:52:44.706Z,9.80
2018-05-16T17:55:10.834Z,8.77
2018-05-16T17:57:36.962Z,8.53
2018-05-16T18:00:03.188Z,7.87
2018-05-16T18:02:29.230Z,8.93
2018-05-16T18:04:55.380Z,8.33
2018-05-16T18:07:22.427Z,8.33
2018-05-16T18:09:48.490Z,7.43
2018-05-16T18:12:14.539Z,8.27
2018-05-16T18:15:01.596Z,8.27
2018-05-16T18:17:27.770Z,7.50
2018-05-16T18:19:53.797Z,7.83
2018-05-16T18:22:19.869Z,7.57
2018-05-16T18:24:45.915Z,7.73
2018-05-16T18:27:11.974Z,6.40
2018-05-16T18:29:37.995Z,7.40
2018-05-16T18:32:04.001Z,7.60
2018-05-16T18:34:30.171Z,8.00
2018-05-16T18:36:56.239Z,8.50
2018-05-16T18:39:22.365Z,7.50
2018-05-16T18:41:48.401Z,7.20
2018-05-16T18:44:14.530Z,7.57
2018-05-16T18:46:40.568Z,7.03
2018-05-16T18:49:06.685Z,7.43
2018-05-16T18:51:32.764Z,7.97
2018-05-16T18:53:58.806Z,8.03
2018-05-16T18:56:24.925Z,6.27
2018-05-16T18:58:51.049Z,8.23
2018-05-16T19:01:17.193Z,7.63
2018-05-16T19:03:43.232Z,7.27
2018-05-16T19:06:09.302Z,6.90
2018-05-16T19:08:35.387Z,7.40
2018-05-16T19:11:01.482Z,7.87
2018-05-16T19:13:27.552Z,8.00
2018-05-16T19:15:53.609Z,7.70
2018-05-16T19:18:20.658Z,6.63
2018-05-16T19:20:46.888Z,7.68
2018-05-16T19:23:13.055Z,5.68
2018-05-16T19:25:39.198Z,6.53
2018-05-16T19:28:05.225Z,6.85
2018-05-16T19:30:31.311Z,6.73
2018-05-16T19:32:58.002Z,7.32
2018-05-16T19:35:24.093Z,6.50
2018-05-16T19:37:50.133Z,8.27
2018-05-16T19:40:16.177Z,6.45
2018-05-16T19:42:42.290Z,7.10
2018-05-16T19:45:08.578Z,6.77
2018-05-16T19:47:34.636Z,6.70
2018-05-16T19:50:00.745Z,6.93
2018-05-16T19:52:26.759Z,7.10
2018-05-16T19:54:52.851Z,6.10
2018-05-16T19:57:19.006Z,6.05
2018-05-16T19:59:45.060Z,6.72
2018-05-16T20:02:11.143Z,6.32
2018-05-16T20:04:37.266Z,5.00
2018-05-16T20:07:03.342Z,6.03
2018-05-16T20:09:29.407Z,6.20
2018-05-16T20:11:55.489Z,6.00
2018-05-16T20:14:21.650Z,6.57
2018-05-16T20:16:47.749Z,6.60
2018-05-16T20:19:13.798Z,6.30
2018-05-16T20:21:39.851Z,6.30
2018-05-16T20:24:06.648Z,6.85
2018-05-16T20:26:33.276Z,6.13
2018-05-16T20:28:59.359Z,6.57
2018-05-16T20:31:25.506Z,6.37
2018-05-16T20:33:51.633Z,5.50
2018-05-16T20:36:18.077Z,5.67
2018-05-16T20:38:44.174Z,7.17
2018-05-16T20:41:10.451Z,6.18
2018-05-16T20:43:36.798Z,5.72
2018-05-16T20:46:03.151Z,5.90
2018-05-16T20:48:30.416Z,6.20
2018-05-16T20:50:56.531Z,6.10
2018-05-16T20:53:23.182Z,5.82
2018-05-16T20:55:50.775Z,6.67
2018-05-16T20:58:17.894Z,5.35
2018-05-16T21:00:44.045Z,5.60
2018-05-16T21:03:10.169Z,6.32
2018-05-16T21:05:36.264Z,5.70
2018-05-16T21:08:02.309Z,5.82
2018-05-16T21:10:28.338Z,5.97
2018-05-16T21:12:54.419Z,6.57
2018-05-16T21:15:20.539Z,6.87
2018-05-16T21:17:47.025Z,6.25
2018-05-16T21:20:13.059Z,5.37
2018-05-16T21:22:39.095Z,6.07
2018-05-16T21:25:05.150Z,6.15
2018-05-16T21:27:32.077Z,5.75
2018-05-16T21:29:58.250Z,7.20
2018-05-16T21:32:24.320Z,5.87
2018-05-16T21:34:50.380Z,5.75
2018-05-16T21:37:16.601Z,6.80
2018-05-16T21:39:42.630Z,6.55
2018-05-16T21:42:09.292Z,5.65
2018-05-16T21:44:35.461Z,6.82
2018-05-16T21:47:01.593Z,6.10
2018-05-16T21:49:27.702Z,5.60
2018-05-16T21:51:53.746Z,6.75
2018-05-16T21:54:19.783Z,6.07
2018-05-16T21:56:45.880Z,5.60
2018-05-16T21:59:12.068Z,6.50
2018-05-16T22:03:21.139Z,5.72
2018-05-16T22:05:47.265Z,7.20
2018-05-16T22:08:13.394Z,5.75
2018-05-16T22:10:39.519Z,4.95
2018-05-16T22:13:05.590Z,5.97
2018-05-16T22:15:31.608Z,5.55
2018-05-16T22:17:57.720Z,6.07
2018-05-16T22:20:23.737Z,5.55
2018-05-16T22:22:49.859Z,5.28
2018-05-16T22:25:15.916Z,5.80
2018-05-16T22:27:42.035Z,5.50
2018-05-16T22:30:08.109Z,5.40
2018-05-16T22:32:40.206Z,5.43
2018-05-16T22:35:12.277Z,6.05
2018-05-16T22:37:45.310Z,6.53
2018-05-16T22:40:17.631Z,5.68
2018-05-16T22:42:43.572Z,5.40
2018-05-16T22:45:09.646Z,5.50
2018-05-16T22:47:35.854Z,5.37
2018-05-16T22:50:02.842Z,5.43
2018-05-16T22:52:28.966Z,5.70
2018-05-16T22:54:55.280Z,6.07
2018-05-16T22:57:21.553Z,4.62
2018-05-16T22:59:47.631Z,5.30
2018-05-16T23:02:13.733Z,4.87
2018-05-16T23:04:40.004Z,4.05
2018-05-16T23:07:06.021Z,5.28
2018-05-16T23:09:32.151Z,4.82
2018-05-16T23:11:58.337Z,4.75
2018-05-16T23:14:24.367Z,5.62
2018-05-16T23:16:51.064Z,4.22
2018-05-16T23:19:17.239Z,4.25
2018-05-16T23:21:43.412Z,5.00
2018-05-16T23:24:09.790Z,4.68
2018-05-16T23:26:35.822Z,5.03
2018-05-16T23:29:01.882Z,5.30
2018-05-16T23:31:27.917Z,4.28
2018-05-16T23:33:53.999Z,5.37
2018-05-16T23:36:20.041Z,4.55
2018-05-16T23:38:46.045Z,4.93
2018-05-16T23:41:12.104Z,4.43
2018-05-16T23:43:38.128Z,5.62
2018-05-16T23:46:04.165Z,5.82
2018-05-16T23:48:30.230Z,4.72
2018-05-16T23:50:56.806Z,5.55
2018-05-16T23:53:22.881Z,4.90
2018-05-16T23:55:49.050Z,6.30
2018-05-16T23:58:15.145Z,5.75
